Time;durP1;ratioP1;P1;durP2;ratioP2;P2;SDS_P1;SDS_P2;PMS_P1;PMS_P2;Temp;Humidity;BMP_temperature;BMP_pressure;BME280_temperature;BME280_humidity;BME280_pressure;Samples;Min_cycle;Max_cycle;Signal;HPM_P1;HPM_P2
2023/08/21 00:00:53;;;;;;;10.03;4.65;;;;;;;30.04;34.10;100037.14;1644767;87;21335;-75
2023/08/21 00:03:59;;;;;;;9.30;4.40;;;;;;;30.08;33.88;100031.72;1670033;86;21320;-81
2023/08/21 00:07:06;;;;;;;12.23;4.67;;;;;;;30.37;33.64;100028.60;1655787;86;21396;-81
2023/08/21 00:10:15;;;;;;;13.88;4.80;;;;;;;30.13;33.93;100018.38;1670874;86;21906;-81
2023/08/21 00:13:21;;;;;;;9.80;4.58;;;;;;;30.44;33.58;100021.39;1644626;87;21343;-75
2023/08/21 00:16:28;;;;;;;8.90;4.17;;;;;;;30.54;33.54;100021.16;1668849;86;21355;-75
2023/08/21 00:19:34;;;;;;;11.43;4.00;;;;;;;29.76;34.62;100024.42;1654877;86;21222;-81
2023/08/21 00:22:40;;;;;;;9.50;4.55;;;;;;;30.28;33.97;100011.00;1653152;86;21215;-74
2023/08/21 00:25:47;;;;;;;9.98;4.97;;;;;;;29.82;34.87;100018.69;1641192;87;21280;-75
2023/08/21 00:28:52;;;;;;;12.18;4.67;;;;;;;30.12;34.31;100013.03;1669741;86;21916;-81
2023/08/21 00:31:59;;;;;;;10.00;4.83;;;;;;;29.57;34.87;100015.78;1641940;86;21398;-75
2023/08/21 00:35:04;;;;;;;10.78;4.80;;;;;;;29.62;35.38;100016.52;1668155;86;21810;-81
2023/08/21 00:38:11;;;;;;;14.58;5.05;;;;;;;30.08;34.50;100011.41;1680703;85;21322;-81
2023/08/21 00:41:18;;;;;;;11.28;4.58;;;;;;;30.22;34.21;100009.45;1664257;86;21917;-75
2023/08/21 00:44:24;;;;;;;18.52;4.87;;;;;;;30.18;34.30;100004.75;1681097;85;21318;-75
2023/08/21 00:47:29;;;;;;;8.70;4.65;;;;;;;30.13;34.80;100002.87;1654534;86;21231;-76
2023/08/21 00:50:35;;;;;;;13.08;5.03;;;;;;;30.33;34.51;100006.41;1681563;85;21318;-75
2023/08/21 00:53:42;;;;;;;11.83;4.90;;;;;;;30.39;34.01;100007.37;1656541;86;22322;-76
2023/08/21 00:56:47;;;;;;;9.33;4.30;;;;;;;30.17;34.11;100006.73;1682962;85;21319;-75
2023/08/21 00:59:53;;;;;;;9.88;5.25;;;;;;;30.12;34.29;100003.99;1656305;86;21301;-80
2023/08/21 01:02:59;;;;;;;10.90;5.17;;;;;;;29.99;34.50;100006.23;1662891;85;21370;-75
2023/08/21 01:06:07;;;;;;;12.37;4.95;;;;;;;30.49;33.98;100005.77;1656575;86;21336;-81
2023/08/21 01:09:27;;;;;;;11.10;4.78;;;;;;;30.19;34.42;100003.02;1683530;85;21339;-75
2023/08/21 01:13:00;;;;;;;19.05;6.08;;;;;;;30.41;34.33;99993.80;1655606;86;21819;-75
2023/08/21 01:16:07;;;;;;;8.60;5.03;;;;;;;30.49;34.01;99992.23;1682231;85;21887;-81
2023/08/21 01:19:16;;;;;;;15.88;4.80;;;;;;;30.59;33.85;99996.80;1656441;86;21321;-75
2023/08/21 01:22:22;;;;;;;16.85;4.87;;;;;;;30.48;33.95;99995.60;1683709;85;21657;-75
2023/08/21 01:25:29;;;;;;;10.60;4.90;;;;;;;30.21;34.54;99990.86;1656630;86;21850;-80
2023/08/21 01:28:34;;;;;;;17.20;5.12;;;;;;;30.07;34.77;99992.82;1683418;85;21897;-81
2023/08/21 01:31:42;;;;;;;12.50;5.42;;;;;;;30.22;34.46;99991.11;1655194;86;21312;-81
2023/08/21 01:34:48;;;;;;;16.12;5.40;;;;;;;30.15;35.03;99997.73;1683422;85;21287;-74
2023/08/21 01:37:53;;;;;;;12.43;5.30;;;;;;;29.94;35.10;99996.47;1642393;86;21300;-75
2023/08/21 01:41:01;;;;;;;14.78;5.70;;;;;;;30.00;35.20;100001.68;1656518;86;21384;-80
2023/08/21 01:44:06;;;;;;;9.05;5.25;;;;;;;30.11;35.11;99995.83;1672150;86;21291;-75
2023/08/21 01:47:10;;;;;;;9.30;5.22;;;;;;;30.08;35.24;99993.08;1644816;87;21348;-74
2023/08/21 01:50:16;;;;;;;14.28;5.80;;;;;;;30.19;35.13;99994.55;1670530;86;21359;-80
2023/08/21 01:53:23;;;;;;;14.55;5.28;;;;;;;30.28;35.14;99998.30;1656621;86;21353;-80
2023/08/21 01:56:29;;;;;;;12.88;5.75;;;;;;;30.25;35.43;99995.27;1672056;86;21770;-74
2023/08/21 01:59:38;;;;;;;11.03;4.92;;;;;;;30.37;35.09;99996.16;1644806;87;21662;-74
2023/08/21 02:02:45;;;;;;;9.95;5.20;;;;;;;30.06;35.43;99992.53;1670284;86;21372;-74
2023/08/21 02:05:51;;;;;;;13.35;4.95;;;;;;;29.91;35.40;99989.46;1656644;86;22193;-80
2023/08/21 02:09:00;;;;;;;16.17;5.87;;;;;;;29.96;35.29;99992.17;1672295;86;21299;-79
2023/08/21 02:12:05;;;;;;;12.68;5.58;;;;;;;30.19;35.14;99985.25;1644060;87;21311;-80
2023/08/21 02:15:10;;;;;;;14.28;5.42;;;;;;;30.29;35.06;99990.67;1670360;86;21296;-75
2023/08/21 02:18:16;;;;;;;16.42;4.60;;;;;;;30.25;34.89;99989.08;1656717;86;21845;-80
2023/08/21 02:21:21;;;;;;;13.45;4.90;;;;;;;30.06;35.16;99985.48;1671959;86;21881;-74
2023/08/21 02:24:26;;;;;;;14.30;5.67;;;;;;;29.96;35.29;99988.52;1645024;87;21327;-75
2023/08/21 02:27:31;;;;;;;25.65;5.67;;;;;;;29.82;35.50;99987.69;1670532;86;21355;-75
2023/08/21 02:30:37;;;;;;;19.52;5.62;;;;;;;29.64;35.99;99994.52;1656518;86;21309;-74
2023/08/21 02:33:43;;;;;;;11.83;5.28;;;;;;;30.04;35.59;99994.84;1671802;86;21312;-79
2023/08/21 02:36:49;;;;;;;13.28;4.90;;;;;;;29.45;36.20;99993.70;1644185;87;21339;-82
2023/08/21 02:39:55;;;;;;;12.68;6.30;;;;;;;29.63;35.82;99994.23;1666687;86;21878;-74
2023/08/21 02:43:01;;;;;;;17.12;5.08;;;;;;;29.68;35.74;99994.13;1680751;85;21287;-76
2023/08/21 02:46:05;;;;;;;23.30;6.72;;;;;;;29.74;35.60;99995.73;1651835;87;21863;-80
2023/08/21 02:49:11;;;;;;;13.43;5.37;;;;;;;29.89;36.43;100000.80;1680689;85;21272;-76
2023/08/21 02:52:16;;;;;;;18.30;6.58;;;;;;;29.41;36.80;99999.71;1650872;87;21368;-75
2023/08/21 02:55:22;;;;;;;14.65;6.33;;;;;;;29.28;36.96;100007.80;1680410;85;21315;-75
2023/08/21 02:58:28;;;;;;;16.50;7.42;;;;;;;29.14;37.50;100001.29;1651548;87;21310;-78
2023/08/21 03:01:36;;;;;;;19.02;6.87;;;;;;;29.42;37.55;100002.20;1680311;85;21334;-75
2023/08/21 03:04:46;;;;;;;17.75;7.75;;;;;;;29.56;37.56;100003.69;1651512;87;21322;-81
2023/08/21 03:07:51;;;;;;;12.70;6.90;;;;;;;29.25;38.11;100002.77;1680526;85;21306;-80
2023/08/21 03:10:58;;;;;;;18.90;7.62;;;;;;;29.16;38.49;99994.77;1651247;87;21349;-75
2023/08/21 03:14:03;;;;;;;17.10;8.05;;;;;;;28.95;39.11;99996.27;1680404;85;21878;-81
2023/08/21 03:17:09;;;;;;;17.30;7.80;;;;;;;29.14;39.16;99995.66;1650643;87;21369;-75
2023/08/21 03:20:17;;;;;;;21.35;7.67;;;;;;;28.92;39.74;99994.02;1680532;85;21321;-75
2023/08/21 03:23:22;;;;;;;26.97;7.97;;;;;;;28.89;39.71;99999.70;1650715;87;21883;-81
2023/08/21 03:26:28;;;;;;;21.45;7.70;;;;;;;29.26;39.02;99999.38;1680303;85;21331;-75
2023/08/21 03:29:34;;;;;;;15.40;6.67;;;;;;;28.99;39.37;99992.53;1651577;87;21337;-75
2023/08/21 03:32:40;;;;;;;19.50;7.67;;;;;;;29.09;39.24;99999.97;1678806;85;21386;-75
2023/08/21 03:35:48;;;;;;;17.37;7.90;;;;;;;29.22;39.03;100001.17;1651250;87;21309;-76
2023/08/21 03:38:54;;;;;;;19.50;8.75;;;;;;;29.52;38.56;99995.55;1678719;85;21327;-75
2023/08/21 03:42:01;;;;;;;19.00;7.70;;;;;;;29.66;38.31;100002.08;1643753;87;21367;-81
2023/08/21 03:45:09;;;;;;;17.17;8.20;;;;;;;29.79;38.08;99990.57;1670078;86;21312;-81
2023/08/21 03:48:09;;;;;;;27.25;7.65;;;;;;;29.75;38.26;99988.94;1656280;86;21305;-81
2023/08/21 03:51:02;;;;;;;20.05;8.48;;;;;;;29.99;37.97;99985.92;1670583;86;21310;-82
2023/08/21 03:53:49;;;;;;;24.92;8.78;;;;;;;30.33;37.62;99986.66;1643137;87;21328;-81
2023/08/21 03:56:42;;;;;;;25.43;7.85;;;;;;;30.65;37.09;99987.89;1669085;86;21328;-82
2023/08/21 03:59:51;;;;;;;30.55;9.18;;;;;;;30.88;36.76;100002.08;1655239;86;21313;-75
2023/08/21 04:02:59;;;;;;;32.38;9.03;;;;;;;31.06;36.48;99995.42;1669655;86;21330;-75
2023/08/21 04:06:05;;;;;;;30.37;9.70;;;;;;;31.38;36.04;99992.08;1643735;87;21311;-75
2023/08/21 04:09:12;;;;;;;23.95;8.65;;;;;;;31.34;36.05;99991.91;1669240;86;21324;-81
2023/08/21 04:12:18;;;;;;;32.65;9.35;;;;;;;31.52;35.97;99996.52;1655662;86;22163;-75
2023/08/21 04:15:25;;;;;;;21.33;8.60;;;;;;;31.46;36.21;99989.89;1671080;86;21856;-76
2023/08/21 04:18:31;;;;;;;21.25;8.30;;;;;;;32.04;35.47;99993.95;1643765;87;21298;-75
2023/08/21 04:21:38;;;;;;;22.05;8.00;;;;;;;32.06;35.54;100000.69;1669300;86;21331;-81
2023/08/21 04:24:44;;;;;;;20.50;8.68;;;;;;;32.00;35.71;100004.84;1655357;86;21365;-75
2023/08/21 04:27:50;;;;;;;19.62;7.62;;;;;;;32.25;35.41;99997.00;1670811;86;21358;-76
2023/08/21 04:30:57;;;;;;;25.15;7.95;;;;;;;32.18;35.57;99999.47;1643661;87;21958;-81
2023/08/21 04:34:04;;;;;;;18.92;7.10;;;;;;;32.44;35.11;99998.16;1669068;86;21862;-81
2023/08/21 04:37:08;;;;;;;19.32;6.97;;;;;;;32.72;34.87;99999.28;1655475;86;21329;-81
2023/08/21 04:40:17;;;;;;;14.55;7.25;;;;;;;32.82;34.73;99995.53;1671781;84;21327;-81
2023/08/21 04:43:24;;;;;;;17.70;6.60;;;;;;;33.39;34.11;100007.27;1643631;87;21363;-81
2023/08/21 04:46:34;;;;;;;21.17;6.85;;;;;;;33.39;34.26;100004.44;1669129;86;21968;-81
2023/08/21 04:49:40;;;;;;;12.20;6.47;;;;;;;33.68;33.74;99998.64;1655313;86;21317;-81
2023/08/21 04:52:46;;;;;;;23.98;6.83;;;;;;;34.18;33.41;100001.63;1670791;86;21354;-80
2023/08/21 04:55:52;;;;;;;23.87;7.10;;;;;;;34.49;32.63;100001.88;1643460;87;21359;-76
2023/08/21 04:58:59;;;;;;;23.40;6.40;;;;;;;34.33;32.75;99999.62;1669012;86;21293;-81
2023/08/21 05:02:05;;;;;;;14.30;6.78;;;;;;;34.24;32.70;100005.10;1655412;86;21336;-75
2023/08/21 05:05:13;;;;;;;11.38;6.15;;;;;;;34.71;32.03;100002.98;1670823;86;21842;-75
2023/08/21 05:08:18;;;;;;;17.40;6.15;;;;;;;34.82;31.78;100004.26;1643691;87;21323;-81
2023/08/21 05:11:25;;;;;;;16.62;6.17;;;;;;;34.79;31.82;100002.69;1669114;86;21352;-75
2023/08/21 05:14:31;;;;;;;21.77;5.97;;;;;;;35.15;31.71;100001.23;1655117;86;21350;-76
2023/08/21 05:17:36;;;;;;;14.40;5.40;;;;;;;35.38;30.77;99998.83;1670741;86;21933;-76
2023/08/21 05:20:42;;;;;;;13.28;6.00;;;;;;;35.52;30.49;100000.20;1643616;87;21704;-81
2023/08/21 05:23:46;;;;;;;16.93;5.67;;;;;;;35.76;30.55;100000.02;1668823;86;21282;-76
2023/08/21 05:26:52;;;;;;;22.90;5.92;;;;;;;35.87;30.75;99998.39;1667921;86;21834;-76
2023/08/21 05:30:00;;;;;;;12.98;5.53;;;;;;;35.86;31.05;100002.43;1661253;86;21304;-75
2023/08/21 05:33:05;;;;;;;17.20;5.97;;;;;;;35.91;30.54;99997.93;1654270;86;21304;-81
2023/08/21 05:36:13;;;;;;;13.53;5.72;;;;;;;35.96;29.78;100004.02;1655586;86;21353;-75
2023/08/21 05:39:20;;;;;;;25.62;6.20;;;;;;;36.24;29.40;100000.70;1659037;86;21264;-81
2023/08/21 05:42:26;;;;;;;13.50;5.50;;;;;;;36.28;29.51;100001.66;1676407;85;21958;-81
2023/08/21 05:45:32;;;;;;;17.40;6.03;;;;;;;36.49;29.49;99999.28;1664948;86;21312;-76
2023/08/21 05:48:36;;;;;;;17.42;5.47;;;;;;;36.53;29.96;99999.63;1682893;85;21263;-77
2023/08/21 05:51:42;;;;;;;10.60;5.17;;;;;;;36.08;29.61;99996.29;1683006;85;21357;-82
2023/08/21 05:54:48;;;;;;;13.03;5.70;;;;;;;36.08;29.61;99996.29;1664880;86;21358;-82
2023/08/21 05:57:53;;;;;;;13.38;5.20;;;;;;;36.50;28.98;99998.91;1682525;85;21286;-76
2023/08/21 06:00:59;;;;;;;13.22;6.25;;;;;;;36.50;28.98;99998.91;1677879;85;21306;-76
2023/08/21 06:04:05;;;;;;;19.70;5.03;;;;;;;36.67;28.89;99992.13;1662992;86;22200;-75
2023/08/21 06:07:19;;;;;;;10.38;5.45;;;;;;;37.01;28.12;100002.75;1668573;85;21275;-75
2023/08/21 06:10:25;;;;;;;12.85;5.17;;;;;;;37.03;28.60;99999.78;1670647;85;22249;-81
2023/08/21 06:13:33;;;;;;;17.40;5.15;;;;;;;36.89;28.08;100001.31;1653305;86;21785;-76
2023/08/21 06:16:39;;;;;;;15.43;5.22;;;;;;;37.10;28.24;100000.58;1673425;85;21291;-81
2023/08/21 06:19:45;;;;;;;12.58;5.47;;;;;;;36.95;28.87;99999.92;1670373;85;21921;-75
2023/08/21 06:22:51;;;;;;;9.25;4.90;;;;;;;37.20;28.31;100000.66;1663860;86;21294;-81
2023/08/21 06:25:57;;;;;;;10.50;4.85;;;;;;;37.16;28.70;100009.70;1648221;84;21395;-75
2023/08/21 06:29:04;;;;;;;11.60;5.10;;;;;;;37.53;27.86;100004.67;1680641;85;21302;-73
2023/08/21 06:32:13;;;;;;;11.63;4.97;;;;;;;37.90;27.97;100011.61;1669187;85;21403;-74
2023/08/21 06:35:20;;;;;;;14.18;5.15;;;;;;;38.18;27.46;100010.92;1657282;84;21177;-77
2023/08/21 06:38:25;;;;;;;19.45;5.55;;;;;;;38.11;27.16;100007.86;1670421;85;21914;-77
2023/08/21 06:41:32;;;;;;;13.45;6.05;;;;;;;38.13;26.75;100014.05;1637444;84;21884;-82
2023/08/21 06:44:41;;;;;;;13.40;5.80;;;;;;;38.26;26.50;100014.19;1701029;83;21301;-77
2023/08/21 06:47:47;;;;;;;12.88;4.92;;;;;;;38.61;25.78;100009.12;1670057;85;21201;-77
2023/08/21 06:50:54;;;;;;;16.57;4.42;;;;;;;38.47;25.69;100012.47;1649535;86;21199;-76
2023/08/21 06:54:00;;;;;;;10.48;4.30;;;;;;;38.48;26.27;100005.55;1674498;85;22006;-83
2023/08/21 06:57:05;;;;;;;14.60;4.15;;;;;;;38.56;25.60;100014.52;1674421;85;21303;-83
2023/08/21 07:00:14;;;;;;;10.03;4.35;;;;;;;38.77;25.17;100015.66;1641096;86;21860;-76
2023/08/21 07:03:20;;;;;;;19.77;5.55;;;;;;;38.95;25.36;100000.31;1645915;86;21967;-82
2023/08/21 07:06:26;;;;;;;14.20;4.03;;;;;;;38.96;24.07;100003.42;1671286;85;21834;-82
2023/08/21 07:09:31;;;;;;;13.18;4.42;;;;;;;38.94;24.75;99996.41;1636728;86;21328;-83
2023/08/21 07:12:36;;;;;;;13.15;4.47;;;;;;;39.18;24.50;100003.86;1659680;85;21303;-82
2023/08/21 07:15:42;;;;;;;12.60;5.37;;;;;;;39.31;24.29;100006.83;1630666;86;21324;-82
2023/08/21 07:18:48;;;;;;;13.93;5.25;;;;;;;39.36;24.77;100002.22;1645332;85;21864;-77
2023/08/21 07:21:54;;;;;;;13.43;6.05;;;;;;;39.52;24.81;99999.25;1618912;86;21260;-77
2023/08/21 07:25:04;;;;;;;14.60;5.30;;;;;;;39.41;24.45;99996.19;1686462;83;21711;-77
2023/08/21 07:28:10;;;;;;;15.58;6.08;;;;;;;39.46;24.91;99996.48;1696591;83;21274;-77
2023/08/21 07:31:18;;;;;;;11.60;5.17;;;;;;;39.81;24.60;99995.77;1633547;86;21809;-77
2023/08/21 07:34:24;;;;;;;11.45;5.47;;;;;;;39.49;24.47;99992.87;1660084;85;21284;-78
2023/08/21 07:37:29;;;;;;;19.32;3.77;;;;;;;39.64;24.93;99990.53;1659096;85;21307;-77
2023/08/21 07:40:37;;;;;;;6.55;3.47;;;;;;;39.73;25.21;99986.83;1631553;86;21337;-77
2023/08/21 07:43:43;;;;;;;10.23;4.30;;;;;;;39.92;24.76;99982.25;1659992;85;21811;-77
2023/08/21 07:46:49;;;;;;;11.33;3.87;;;;;;;39.99;24.29;99985.22;1633377;86;21911;-77
2023/08/21 07:49:54;;;;;;;10.45;4.08;;;;;;;39.89;24.54;99988.72;1668933;85;21285;-77
2023/08/21 07:53:01;;;;;;;7.28;3.45;;;;;;;40.11;24.50;99994.47;1675034;85;22001;-77
2023/08/21 07:56:07;;;;;;;11.28;3.70;;;;;;;39.94;23.79;99990.66;1668275;85;21853;-78
2023/08/21 07:59:14;;;;;;;10.48;3.35;;;;;;;40.24;22.95;99983.64;1668277;85;21299;-78
2023/08/21 08:02:20;;;;;;;8.68;3.58;;;;;;;39.81;23.48;99988.61;1645463;86;21327;-78
2023/08/21 08:05:28;;;;;;;15.13;3.83;;;;;;;39.92;23.37;99989.40;1659417;85;21599;-79
2023/08/21 08:08:35;;;;;;;15.75;4.25;;;;;;;40.23;23.29;99980.56;1674266;84;21379;-79
2023/08/21 08:11:48;;;;;;;11.73;3.33;;;;;;;40.47;23.86;99991.36;1672518;84;21199;-80
2023/08/21 08:14:58;;;;;;;16.07;3.67;;;;;;;40.00;24.56;99987.72;1639012;86;21299;-78
2023/08/21 08:18:11;;;;;;;13.83;3.37;;;;;;;39.97;23.62;99984.78;1657323;85;21852;-78
2023/08/21 08:21:25;;;;;;;16.37;3.80;;;;;;;39.89;22.74;99990.16;1625318;86;22142;-79
2023/08/21 08:24:44;;;;;;;17.17;3.67;;;;;;;39.88;23.46;99985.65;1682070;83;21892;-79
2023/08/21 08:27:46;;;;;;;8.00;3.10;;;;;;;39.84;22.91;99982.10;1691897;83;21321;-79
2023/08/21 08:30:57;;;;;;;12.37;2.90;;;;;;;39.50;22.73;99975.93;1645786;86;21294;-77
2023/08/21 08:34:04;;;;;;;8.28;3.02;;;;;;;39.77;22.58;99976.27;1641672;86;21885;-77
2023/08/21 08:37:09;;;;;;;11.97;3.45;;;;;;;39.95;21.97;99984.32;1661229;85;21176;-76
2023/08/21 08:40:15;;;;;;;11.40;2.55;;;;;;;40.05;21.12;99972.25;1645012;85;21313;-76
2023/08/21 08:43:22;;;;;;;12.93;3.25;;;;;;;40.35;21.99;99971.73;1689939;83;21280;-76
2023/08/21 08:46:30;;;;;;;8.68;2.90;;;;;;;40.40;22.04;99968.31;1659658;83;21278;-76
2023/08/21 08:49:36;;;;;;;8.65;3.10;;;;;;;40.25;21.82;99966.67;1597750;88;21971;-76
2023/08/21 08:52:44;;;;;;;8.98;2.47;;;;;;;39.87;21.51;99966.22;1609872;88;21334;-76
2023/08/21 08:55:53;;;;;;;10.00;2.90;;;;;;;40.19;21.24;99966.78;1600390;88;21864;-77
2023/08/21 08:58:59;;;;;;;13.58;3.70;;;;;;;40.36;21.38;99968.25;1599532;88;21327;-77
2023/08/21 09:02:05;;;;;;;9.93;3.02;;;;;;;40.59;21.87;99962.48;1595951;88;21329;-78
2023/08/21 09:05:10;;;;;;;10.68;3.10;;;;;;;40.65;21.81;99958.06;1600760;88;21329;-78
2023/08/21 09:08:20;;;;;;;9.83;3.45;;;;;;;40.40;22.31;99943.35;1593541;89;21999;-78
2023/08/21 09:11:25;;;;;;;13.05;3.30;;;;;;;40.39;21.16;99956.03;1599245;89;21325;-78
2023/08/21 09:14:36;;;;;;;12.50;3.62;;;;;;;40.80;21.45;99956.24;1586226;88;21459;-77
2023/08/21 09:17:41;;;;;;;14.60;3.17;;;;;;;40.49;21.63;99950.23;1596519;89;21210;-78
2023/08/21 09:20:48;;;;;;;9.55;3.10;;;;;;;40.19;21.89;99952.47;1596139;88;21183;-78
2023/08/21 09:23:52;;;;;;;8.85;3.33;;;;;;;40.55;21.65;99950.14;1597938;88;21214;-78
2023/08/21 09:27:00;;;;;;;10.85;4.72;;;;;;;40.16;22.63;99946.67;1598210;89;21784;-77
2023/08/21 09:30:08;;;;;;;12.00;4.22;;;;;;;40.51;24.03;99947.25;1595613;88;21756;-78
2023/08/21 09:33:15;;;;;;;14.05;3.70;;;;;;;40.45;22.94;99947.92;1593262;89;21389;-78
2023/08/21 09:36:24;;;;;;;14.28;3.40;;;;;;;40.22;23.98;99954.53;1608772;89;21199;-78
2023/08/21 09:39:29;;;;;;;15.10;3.70;;;;;;;40.45;22.66;99946.49;1650700;85;21345;-77
2023/08/21 09:42:38;;;;;;;14.18;4.35;;;;;;;40.74;23.46;99947.13;1651851;86;21307;-77
2023/08/21 09:45:44;;;;;;;15.08;3.75;;;;;;;40.95;23.05;99941.50;1619499;85;21663;-77
2023/08/21 09:48:50;;;;;;;12.63;3.90;;;;;;;40.79;22.46;99943.09;1617231;88;21317;-78
2023/08/21 09:51:56;;;;;;;6.80;3.33;;;;;;;40.79;22.64;99951.09;1648999;86;22054;-83
2023/08/21 09:55:03;;;;;;;13.53;3.85;;;;;;;40.79;23.11;99945.97;1622923;86;21301;-82
2023/08/21 09:58:10;;;;;;;10.63;3.10;;;;;;;40.78;22.58;99940.84;1637223;86;21180;-78
2023/08/21 10:01:15;;;;;;;11.88;3.50;;;;;;;40.80;22.43;99955.63;1623727;86;21974;-78
2023/08/21 10:04:20;;;;;;;11.25;3.62;;;;;;;40.88;22.61;99941.58;1645036;85;21304;-77
2023/08/21 10:07:28;;;;;;;6.97;2.98;;;;;;;40.70;22.91;99945.43;1619562;88;21362;-82
2023/08/21 10:10:39;;;;;;;12.20;3.47;;;;;;;40.64;22.75;99940.66;1647544;85;21284;-82
2023/08/21 10:13:46;;;;;;;12.23;3.70;;;;;;;40.69;23.20;99933.75;1613006;88;21322;-83
2023/08/21 10:16:54;;;;;;;14.18;4.00;;;;;;;40.92;23.36;99935.90;1640853;86;21334;-78
2023/08/21 10:20:00;;;;;;;5.40;3.58;;;;;;;40.92;23.19;99936.52;1619044;86;21867;-82
2023/08/21 10:23:09;;;;;;;9.93;3.83;;;;;;;40.78;22.75;99935.72;1649391;86;21657;-77
2023/08/21 10:26:15;;;;;;;15.95;3.98;;;;;;;40.19;23.72;99941.61;1621132;86;21372;-78
2023/08/21 10:29:24;;;;;;;17.07;3.90;;;;;;;40.41;23.29;99929.85;1638499;85;21286;-83
2023/08/21 10:32:30;;;;;;;7.50;3.33;;;;;;;40.39;23.53;99929.42;1609963;88;21360;-78
2023/08/21 10:35:39;;;;;;;11.88;4.08;;;;;;;40.51;23.31;99927.19;1638090;85;21291;-78
2023/08/21 10:38:49;;;;;;;24.00;4.15;;;;;;;40.53;23.39;99932.52;1631655;87;21336;-77
2023/08/21 10:42:15;;;;;;;11.78;4.50;;;;;;;40.49;23.97;99930.18;1634021;86;21314;-82
2023/08/21 10:45:21;;;;;;;8.83;4.15;;;;;;;40.45;23.06;99923.57;1617269;86;21969;-78
2023/08/21 10:48:27;;;;;;;17.07;4.03;;;;;;;40.09;23.40;99915.28;1658071;86;21302;-81
2023/08/21 10:51:33;;;;;;;8.00;3.98;;;;;;;40.55;23.13;99915.75;1646022;86;21334;-78
2023/08/21 10:54:54;;;;;;;13.85;3.92;;;;;;;40.45;22.94;99920.09;1627512;85;21362;-77
2023/08/21 10:58:01;;;;;;;11.75;4.53;;;;;;;40.42;22.81;99918.02;1651179;86;21319;-77
2023/08/21 11:01:07;;;;;;;19.52;4.90;;;;;;;40.74;22.01;99911.91;1658651;85;21363;-76
2023/08/21 11:04:14;;;;;;;8.70;3.95;;;;;;;41.02;22.67;99916.59;1654743;86;21670;-76
2023/08/21 11:07:20;;;;;;;11.12;4.33;;;;;;;40.53;22.29;99915.33;1638086;87;21299;-77
2023/08/21 11:10:32;;;;;;;17.02;5.58;;;;;;;40.79;21.85;99908.08;1677149;84;21900;-77
2023/08/21 11:13:37;;;;;;;10.95;4.22;;;;;;;40.42;22.96;99899.40;1677769;83;21338;-78
2023/08/21 11:16:46;;;;;;;11.12;4.83;;;;;;;40.65;22.52;99897.88;1635330;86;21308;-76
2023/08/21 11:19:52;;;;;;;12.63;5.42;;;;;;;40.73;22.57;99900.23;1656129;85;21175;-76
2023/08/21 11:23:02;;;;;;;20.65;5.55;;;;;;;40.92;22.70;99900.06;1641465;85;21345;-78
2023/08/21 11:26:08;;;;;;;14.83;5.85;;;;;;;41.01;22.89;99894.05;1680148;85;21327;-79
2023/08/21 11:29:16;;;;;;;18.98;5.97;;;;;;;40.95;23.18;99885.59;1680830;85;21408;-79
2023/08/21 11:32:22;;;;;;;19.73;6.30;;;;;;;40.45;23.57;99877.11;1683464;83;21251;-85
2023/08/21 11:35:28;;;;;;;12.33;5.22;;;;;;;40.63;23.22;99881.69;1681123;85;21331;-85
2023/08/21 11:38:34;;;;;;;16.12;4.92;;;;;;;40.70;22.43;99881.79;1683789;83;21597;-85
2023/08/21 11:41:42;;;;;;;18.37;5.90;;;;;;;40.28;22.83;99877.11;1662050;86;21330;-86
2023/08/21 11:44:59;;;;;;;15.53;5.28;;;;;;;40.55;23.21;99884.23;1660380;86;21874;-79
2023/08/21 11:48:06;;;;;;;15.35;5.12;;;;;;;40.39;23.38;99885.02;1656758;84;21353;-79
2023/08/21 11:51:13;;;;;;;11.68;4.53;;;;;;;40.44;23.20;99883.24;1663853;85;21338;-84
2023/08/21 11:54:19;;;;;;;17.62;4.05;;;;;;;40.88;22.66;99879.94;1648446;87;21292;-79
2023/08/21 11:57:24;;;;;;;10.50;4.70;;;;;;;40.79;23.05;99873.69;1633259;86;21360;-86
2023/08/21 12:00:38;;;;;;;8.40;4.15;;;;;;;40.86;23.29;99870.09;1657652;86;21343;-86
2023/08/21 12:03:46;;;;;;;8.23;3.45;;;;;;;40.62;23.19;99874.31;1632668;86;21316;-84
2023/08/21 12:06:54;;;;;;;6.58;3.75;;;;;;;40.08;23.56;99874.13;1682894;85;21343;-85
2023/08/21 12:10:00;;;;;;;11.05;3.92;;;;;;;40.01;23.78;99869.70;1617645;88;21997;-86
2023/08/21 12:13:07;;;;;;;11.35;4.40;;;;;;;40.18;23.80;99871.20;1672152;83;21264;-79
2023/08/21 12:16:13;;;;;;;10.03;4.05;;;;;;;40.43;23.24;99880.16;1683451;85;21899;-85
2023/08/21 12:19:21;;;;;;;13.53;3.87;;;;;;;40.43;23.61;99867.27;1615105;87;21283;-78
2023/08/21 12:22:28;;;;;;;8.65;3.72;;;;;;;40.43;22.68;99875.87;1650242;85;21856;-86
2023/08/21 12:25:37;;;;;;;6.83;4.15;;;;;;;40.39;23.39;99870.08;1633318;87;22016;-86
2023/08/21 12:28:43;;;;;;;15.38;4.20;;;;;;;40.16;23.17;99875.07;1685647;85;21276;-85
2023/08/21 12:31:48;;;;;;;10.35;3.62;;;;;;;39.99;24.03;99869.25;1683991;85;21334;-87
2023/08/21 12:34:54;;;;;;;12.82;4.28;;;;;;;39.90;23.80;99865.84;1607991;88;21314;-80
2023/08/21 12:38:05;;;;;;;9.68;4.30;;;;;;;39.43;24.59;99861.34;1672505;83;21889;-85
2023/08/21 12:41:11;;;;;;;17.77;4.45;;;;;;;39.84;24.09;99855.33;1611168;88;21375;-86
2023/08/21 12:44:17;;;;;;;10.28;4.42;;;;;;;39.46;24.42;99852.01;1648770;87;21311;-80
2023/08/21 12:47:23;;;;;;;6.83;4.03;;;;;;;39.08;24.55;99857.43;1630811;88;21337;-80
2023/08/21 12:50:28;;;;;;;11.93;5.40;;;;;;;38.79;25.63;99870.95;1650854;86;21350;-86
2023/08/21 12:53:34;;;;;;;13.58;4.22;;;;;;;38.41;25.99;99875.43;1631086;88;21238;-86
2023/08/21 12:56:40;;;;;;;27.13;4.60;;;;;;;38.20;25.71;99876.33;1651127;87;21311;-85
2023/08/21 12:59:47;;;;;;;9.68;4.25;;;;;;;38.04;26.03;99886.37;1629991;88;21987;-80
2023/08/21 13:02:53;;;;;;;12.47;4.80;;;;;;;38.23;25.98;99887.84;1650376;87;21358;-79
2023/08/21 13:05:59;;;;;;;12.40;5.37;;;;;;;38.10;26.31;99893.44;1629324;88;22581;-86
2023/08/21 13:09:06;;;;;;;17.15;5.53;;;;;;;38.41;26.02;99897.45;1651626;87;21869;-86
2023/08/21 13:12:12;;;;;;;13.03;4.30;;;;;;;38.43;26.18;99883.61;1630526;88;21324;-78
2023/08/21 13:15:17;;;;;;;7.55;4.65;;;;;;;37.81;27.17;99889.87;1651618;87;21292;-84
2023/08/21 13:18:23;;;;;;;10.08;4.15;;;;;;;38.03;27.20;99896.14;1630804;88;21977;-80
2023/08/21 13:21:29;;;;;;;8.30;3.83;;;;;;;38.47;27.07;99891.66;1651257;87;21307;-78
2023/08/21 13:24:35;;;;;;;14.13;3.80;;;;;;;38.49;27.17;99890.67;1631007;88;21332;-85
2023/08/21 13:27:41;;;;;;;10.95;4.25;;;;;;;38.59;27.38;99890.11;1651387;87;21322;-87
2023/08/21 13:30:47;;;;;;;15.63;4.20;;;;;;;38.63;27.85;99881.59;1630023;88;21360;-86
2023/08/21 13:33:58;;;;;;;9.08;4.33;;;;;;;38.65;28.01;99875.73;1685851;85;21307;-79
2023/08/21 13:37:04;;;;;;;9.23;4.37;;;;;;;38.74;28.17;99874.91;1649739;87;21369;-85
2023/08/21 13:40:16;;;;;;;7.60;4.60;;;;;;;38.55;28.03;99865.73;1637354;87;21222;-86
2023/08/21 13:43:22;;;;;;;7.80;4.22;;;;;;;38.52;28.23;99864.22;1684590;83;21383;-79
2023/08/21 13:46:29;;;;;;;10.23;4.25;;;;;;;38.57;27.90;99866.78;1628266;88;21353;-86
2023/08/21 13:49:35;;;;;;;11.10;4.62;;;;;;;38.57;27.69;99861.06;1647698;85;21310;-80
2023/08/21 13:52:40;;;;;;;20.65;5.30;;;;;;;38.24;28.39;99852.97;1629675;88;21953;-87
2023/08/21 13:55:46;;;;;;;9.33;4.37;;;;;;;38.19;28.56;99858.98;1643911;85;21852;-80
2023/08/21 13:58:51;;;;;;;8.05;4.40;;;;;;;38.07;28.93;99859.34;1616728;86;21360;-87
2023/08/21 14:01:56;;;;;;;10.00;4.78;;;;;;;38.08;28.92;99863.02;1639921;85;21980;-79
2023/08/21 14:05:04;;;;;;;14.10;6.80;;;;;;;37.99;28.51;99869.53;1619171;88;21221;-87
2023/08/21 14:08:11;;;;;;;10.10;4.80;;;;;;;37.78;27.69;99867.80;1637769;85;21309;-86
2023/08/21 14:11:16;;;;;;;9.00;4.62;;;;;;;37.72;27.11;99868.44;1620518;86;21988;-86
2023/08/21 14:14:22;;;;;;;7.45;4.20;;;;;;;37.88;26.98;99869.29;1625841;88;21887;-80
2023/08/21 14:17:27;;;;;;;8.90;4.70;;;;;;;37.99;26.65;99872.39;1626646;88;21249;-79
2023/08/21 14:20:33;;;;;;;9.20;5.05;;;;;;;38.31;26.47;99871.13;1646936;85;21304;-80
2023/08/21 14:23:39;;;;;;;7.95;5.22;;;;;;;38.52;26.56;99876.48;1605134;89;21372;-86
2023/08/21 14:26:45;;;;;;;21.57;5.25;;;;;;;38.59;26.62;99881.53;1636865;85;21863;-80